PKWA/KWA METAR and TAF weather

Enter ICAO airport designator
Station Type Date Time Source
PKWA METAR 2019/06/19 03:00 UTC NOAA

PKWA 190300Z AUTO 07010KT 10SM SCT022 31/25 A2978 RMK AO2 T03110249


Station Type Date Time Source
PKWA Decoded METAR 2019/06/19 03:00 UTC NOAA

Kwajalein, Bucholz AAF, Kwajalein KMR ATOL Airport, Marshall Islands (PKWA) 08-43N 167-44E 2M
Jun 18, 2019 - 11:00 PM EDT / 2019.06.19 0300 UTC
Wind: from the ENE (070 degrees) at 12 MPH (10 KT):0
Visibility: 10 mile(s):0
Sky conditions: partly cloudy
Temperature: 88.0 F (31.1 C)
Heat index: 99.7 F (37.6 C):1
Dew Point: 76.8 F (24.9 C)
Relative Humidity: 69%
Pressure (altimeter): 29.78 in. Hg (1008 hPa)
ob: PKWA 190300Z AUTO 07010KT 10SM SCT022 31/25 A2978 RMK AO2 T03110249
cycle: 3

Station Type Date Time Source
PKWA TAF 2019/06/18 18:46 UTC NOAA

TAF PKWA 181738Z 1818/1918 07014KT P6SM SCT020 SCT040

Example: see airport list